sensor_id;sensor_type;location;lat;lon;timestamp;P1;durP1;ratioP1;P2;durP2;ratioP2
53261;SDS011;39658;51.090;-1.786;2024-02-16T00:01:57;15.80;;;6.03;;
53261;SDS011;39658;51.090;-1.786;2024-02-16T00:04:24;17.17;;;6.70;;
53261;SDS011;39658;51.090;-1.786;2024-02-16T00:06:50;16.60;;;6.88;;
53261;SDS011;39658;51.090;-1.786;2024-02-16T00:09:17;13.88;;;6.13;;
53261;SDS011;39658;51.090;-1.786;2024-02-16T00:11:45;12.73;;;5.00;;
53261;SDS011;39658;51.090;-1.786;2024-02-16T00:14:13;8.95;;;4.20;;
53261;SDS011;39658;51.090;-1.786;2024-02-16T00:16:40;9.82;;;3.90;;
53261;SDS011;39658;51.090;-1.786;2024-02-16T00:19:07;7.78;;;3.40;;
53261;SDS011;39658;51.090;-1.786;2024-02-16T00:21:33;7.22;;;3.28;;
53261;SDS011;39658;51.090;-1.786;2024-02-16T00:24:00;8.10;;;3.22;;
53261;SDS011;39658;51.090;-1.786;2024-02-16T00:26:28;7.90;;;3.65;;
53261;SDS011;39658;51.090;-1.786;2024-02-16T00:28:56;9.20;;;3.13;;
53261;SDS011;39658;51.090;-1.786;2024-02-16T00:31:22;9.93;;;3.60;;
53261;SDS011;39658;51.090;-1.786;2024-02-16T00:33:49;7.97;;;2.85;;
53261;SDS011;39658;51.090;-1.786;2024-02-16T00:36:16;6.43;;;2.50;;
53261;SDS011;39658;51.090;-1.786;2024-02-16T00:38:43;5.88;;;2.28;;
53261;SDS011;39658;51.090;-1.786;2024-02-16T00:41:16;5.95;;;2.20;;
53261;SDS011;39658;51.090;-1.786;2024-02-16T00:43:44;6.15;;;2.30;;
53261;SDS011;39658;51.090;-1.786;2024-02-16T00:46:12;6.10;;;2.50;;
53261;SDS011;39658;51.090;-1.786;2024-02-16T00:48:38;10.27;;;2.53;;
53261;SDS011;39658;51.090;-1.786;2024-02-16T00:51:05;7.10;;;2.78;;
53261;SDS011;39658;51.090;-1.786;2024-02-16T00:53:32;8.65;;;3.50;;
53261;SDS011;39658;51.090;-1.786;2024-02-16T00:55:59;8.98;;;2.92;;
53261;SDS011;39658;51.090;-1.786;2024-02-16T00:58:25;8.02;;;3.10;;
53261;SDS011;39658;51.090;-1.786;2024-02-16T01:00:52;8.48;;;3.63;;
53261;SDS011;39658;51.090;-1.786;2024-02-16T01:03:21;10.68;;;3.13;;
53261;SDS011;39658;51.090;-1.786;2024-02-16T01:05:47;10.95;;;3.25;;
53261;SDS011;39658;51.090;-1.786;2024-02-16T01:08:14;11.00;;;3.70;;
53261;SDS011;39658;51.090;-1.786;2024-02-16T01:10:41;11.32;;;3.88;;
53261;SDS011;39658;51.090;-1.786;2024-02-16T01:13:07;10.45;;;3.45;;
53261;SDS011;39658;51.090;-1.786;2024-02-16T01:15:35;8.45;;;3.83;;
53261;SDS011;39658;51.090;-1.786;2024-02-16T01:18:03;11.45;;;4.18;;
53261;SDS011;39658;51.090;-1.786;2024-02-16T01:20:31;9.32;;;3.85;;
53261;SDS011;39658;51.090;-1.786;2024-02-16T01:22:58;13.57;;;3.95;;
53261;SDS011;39658;51.090;-1.786;2024-02-16T01:25:25;12.20;;;4.55;;
53261;SDS011;39658;51.090;-1.786;2024-02-16T01:27:52;10.75;;;4.68;;
53261;SDS011;39658;51.090;-1.786;2024-02-16T01:30:18;10.75;;;4.72;;
53261;SDS011;39658;51.090;-1.786;2024-02-16T01:32:46;10.50;;;3.72;;
53261;SDS011;39658;51.090;-1.786;2024-02-16T01:35:13;10.00;;;4.15;;
53261;SDS011;39658;51.090;-1.786;2024-02-16T01:37:42;8.98;;;4.07;;
53261;SDS011;39658;51.090;-1.786;2024-02-16T01:40:09;10.73;;;3.40;;
53261;SDS011;39658;51.090;-1.786;2024-02-16T01:42:39;11.40;;;3.97;;
53261;SDS011;39658;51.090;-1.786;2024-02-16T01:45:07;14.73;;;3.63;;
53261;SDS011;39658;51.090;-1.786;2024-02-16T01:47:35;18.42;;;4.30;;
53261;SDS011;39658;51.090;-1.786;2024-02-16T01:50:02;10.70;;;3.38;;
53261;SDS011;39658;51.090;-1.786;2024-02-16T01:52:29;9.85;;;3.42;;
53261;SDS011;39658;51.090;-1.786;2024-02-16T01:55:00;14.02;;;4.15;;
53261;SDS011;39658;51.090;-1.786;2024-02-16T01:57:28;14.98;;;3.85;;
53261;SDS011;39658;51.090;-1.786;2024-02-16T01:59:54;10.52;;;4.25;;
53261;SDS011;39658;51.090;-1.786;2024-02-16T02:02:21;12.95;;;4.30;;
53261;SDS011;39658;51.090;-1.786;2024-02-16T02:04:48;13.05;;;4.18;;
53261;SDS011;39658;51.090;-1.786;2024-02-16T02:07:15;13.27;;;4.47;;
53261;SDS011;39658;51.090;-1.786;2024-02-16T02:09:42;9.88;;;3.55;;
53261;SDS011;39658;51.090;-1.786;2024-02-16T02:12:10;11.30;;;3.30;;
53261;SDS011;39658;51.090;-1.786;2024-02-16T02:14:37;14.25;;;4.65;;
53261;SDS011;39658;51.090;-1.786;2024-02-16T02:17:04;13.32;;;4.05;;
53261;SDS011;39658;51.090;-1.786;2024-02-16T02:19:31;14.80;;;4.40;;
53261;SDS011;39658;51.090;-1.786;2024-02-16T02:21:58;16.88;;;5.00;;
53261;SDS011;39658;51.090;-1.786;2024-02-16T02:24:27;14.10;;;4.70;;
53261;SDS011;39658;51.090;-1.786;2024-02-16T02:26:54;13.88;;;5.75;;
53261;SDS011;39658;51.090;-1.786;2024-02-16T02:29:22;13.15;;;4.43;;
53261;SDS011;39658;51.090;-1.786;2024-02-16T02:31:49;12.20;;;4.18;;
53261;SDS011;39658;51.090;-1.786;2024-02-16T02:34:15;8.57;;;3.20;;
53261;SDS011;39658;51.090;-1.786;2024-02-16T02:36:42;8.82;;;2.38;;
53261;SDS011;39658;51.090;-1.786;2024-02-16T02:39:09;13.65;;;2.95;;
53261;SDS011;39658;51.090;-1.786;2024-02-16T02:41:39;7.45;;;3.08;;
53261;SDS011;39658;51.090;-1.786;2024-02-16T02:44:06;9.27;;;2.70;;
53261;SDS011;39658;51.090;-1.786;2024-02-16T02:46:33;7.45;;;2.75;;
53261;SDS011;39658;51.090;-1.786;2024-02-16T02:49:00;12.55;;;3.53;;
53261;SDS011;39658;51.090;-1.786;2024-02-16T02:51:27;10.27;;;2.40;;
53261;SDS011;39658;51.090;-1.786;2024-02-16T02:53:53;9.52;;;2.58;;
53261;SDS011;39658;51.090;-1.786;2024-02-16T02:56:20;9.88;;;2.47;;
53261;SDS011;39658;51.090;-1.786;2024-02-16T02:58:48;10.13;;;2.65;;
53261;SDS011;39658;51.090;-1.786;2024-02-16T03:01:15;8.60;;;2.30;;
53261;SDS011;39658;51.090;-1.786;2024-02-16T03:03:44;7.57;;;2.30;;
53261;SDS011;39658;51.090;-1.786;2024-02-16T03:06:11;12.88;;;2.85;;
53261;SDS011;39658;51.090;-1.786;2024-02-16T03:08:39;8.90;;;2.28;;
53261;SDS011;39658;51.090;-1.786;2024-02-16T03:11:05;7.22;;;2.30;;
53261;SDS011;39658;51.090;-1.786;2024-02-16T03:13:32;10.48;;;3.85;;
53261;SDS011;39658;51.090;-1.786;2024-02-16T03:16:00;7.68;;;3.65;;
53261;SDS011;39658;51.090;-1.786;2024-02-16T03:18:29;15.23;;;4.15;;
53261;SDS011;39658;51.090;-1.786;2024-02-16T03:20:56;10.77;;;3.78;;
53261;SDS011;39658;51.090;-1.786;2024-02-16T03:23:23;10.30;;;3.55;;
53261;SDS011;39658;51.090;-1.786;2024-02-16T03:25:50;13.13;;;5.43;;
53261;SDS011;39658;51.090;-1.786;2024-02-16T03:28:17;16.25;;;4.00;;
53261;SDS011;39658;51.090;-1.786;2024-02-16T03:30:44;9.82;;;3.53;;
53261;SDS011;39658;51.090;-1.786;2024-02-16T03:33:13;13.18;;;3.95;;
53261;SDS011;39658;51.090;-1.786;2024-02-16T03:35:40;13.85;;;4.20;;
53261;SDS011;39658;51.090;-1.786;2024-02-16T03:38:06;10.13;;;2.63;;
53261;SDS011;39658;51.090;-1.786;2024-02-16T03:40:33;9.32;;;2.90;;
53261;SDS011;39658;51.090;-1.786;2024-02-16T03:43:00;14.23;;;3.47;;
53261;SDS011;39658;51.090;-1.786;2024-02-16T03:45:27;7.65;;;2.40;;
53261;SDS011;39658;51.090;-1.786;2024-02-16T03:47:54;8.18;;;2.45;;
53261;SDS011;39658;51.090;-1.786;2024-02-16T03:50:22;7.28;;;2.45;;
53261;SDS011;39658;51.090;-1.786;2024-02-16T03:52:48;8.57;;;1.90;;
53261;SDS011;39658;51.090;-1.786;2024-02-16T03:55:15;9.27;;;1.90;;
53261;SDS011;39658;51.090;-1.786;2024-02-16T03:57:42;7.28;;;1.58;;
53261;SDS011;39658;51.090;-1.786;2024-02-16T04:00:09;5.25;;;1.27;;
53261;SDS011;39658;51.090;-1.786;2024-02-16T04:02:37;5.55;;;1.40;;
53261;SDS011;39658;51.090;-1.786;2024-02-16T04:05:04;8.00;;;1.60;;
53261;SDS011;39658;51.090;-1.786;2024-02-16T04:07:34;7.07;;;1.73;;
53261;SDS011;39658;51.090;-1.786;2024-02-16T04:10:01;6.82;;;1.80;;
53261;SDS011;39658;51.090;-1.786;2024-02-16T04:12:27;3.60;;;1.20;;
53261;SDS011;39658;51.090;-1.786;2024-02-16T04:14:54;10.95;;;1.10;;
53261;SDS011;39658;51.090;-1.786;2024-02-16T04:17:21;6.63;;;1.27;;
53261;SDS011;39658;51.090;-1.786;2024-02-16T04:19:48;6.10;;;1.33;;
53261;SDS011;39658;51.090;-1.786;2024-02-16T04:22:14;14.30;;;1.88;;
53261;SDS011;39658;51.090;-1.786;2024-02-16T04:24:42;9.07;;;2.15;;
53261;SDS011;39658;51.090;-1.786;2024-02-16T04:27:09;9.95;;;2.08;;
53261;SDS011;39658;51.090;-1.786;2024-02-16T04:29:36;9.52;;;1.67;;
53261;SDS011;39658;51.090;-1.786;2024-02-16T04:32:05;9.98;;;2.72;;
53261;SDS011;39658;51.090;-1.786;2024-02-16T04:34:32;14.55;;;1.98;;
53261;SDS011;39658;51.090;-1.786;2024-02-16T04:36:59;12.63;;;2.20;;
53261;SDS011;39658;51.090;-1.786;2024-02-16T04:39:25;13.13;;;2.25;;
53261;SDS011;39658;51.090;-1.786;2024-02-16T04:41:56;9.75;;;2.22;;
53261;SDS011;39658;51.090;-1.786;2024-02-16T04:44:22;10.00;;;2.50;;
53261;SDS011;39658;51.090;-1.786;2024-02-16T04:46:50;13.10;;;2.15;;
53261;SDS011;39658;51.090;-1.786;2024-02-16T04:49:18;15.20;;;3.30;;
53261;SDS011;39658;51.090;-1.786;2024-02-16T04:51:45;15.60;;;3.72;;
53261;SDS011;39658;51.090;-1.786;2024-02-16T04:54:12;12.55;;;2.72;;
53261;SDS011;39658;51.090;-1.786;2024-02-16T04:56:39;12.82;;;2.72;;
53261;SDS011;39658;51.090;-1.786;2024-02-16T04:59:07;14.48;;;3.38;;
53261;SDS011;39658;51.090;-1.786;2024-02-16T05:01:33;17.88;;;3.13;;
53261;SDS011;39658;51.090;-1.786;2024-02-16T05:04:00;19.42;;;3.13;;
53261;SDS011;39658;51.090;-1.786;2024-02-16T05:06:27;20.55;;;4.30;;
53261;SDS011;39658;51.090;-1.786;2024-02-16T05:08:56;22.45;;;3.08;;
53261;SDS011;39658;51.090;-1.786;2024-02-16T05:11:23;27.52;;;3.92;;
53261;SDS011;39658;51.090;-1.786;2024-02-16T05:13:50;20.10;;;3.35;;
53261;SDS011;39658;51.090;-1.786;2024-02-16T05:16:18;25.00;;;4.05;;
53261;SDS011;39658;51.090;-1.786;2024-02-16T05:18:44;23.33;;;3.28;;
53261;SDS011;39658;51.090;-1.786;2024-02-16T05:21:11;17.70;;;2.60;;
53261;SDS011;39658;51.090;-1.786;2024-02-16T05:23:38;21.38;;;3.20;;
53261;SDS011;39658;51.090;-1.786;2024-02-16T05:26:04;21.33;;;3.08;;
53261;SDS011;39658;51.090;-1.786;2024-02-16T05:28:31;19.65;;;3.20;;
53261;SDS011;39658;51.090;-1.786;2024-02-16T05:30:59;21.02;;;2.90;;
53261;SDS011;39658;51.090;-1.786;2024-02-16T05:33:41;14.35;;;3.47;;
53261;SDS011;39658;51.090;-1.786;2024-02-16T05:36:08;15.70;;;3.33;;
53261;SDS011;39658;51.090;-1.786;2024-02-16T05:38:34;21.10;;;2.50;;
53261;SDS011;39658;51.090;-1.786;2024-02-16T05:41:06;16.95;;;4.03;;
53261;SDS011;39658;51.090;-1.786;2024-02-16T05:43:33;18.73;;;3.35;;
53261;SDS011;39658;51.090;-1.786;2024-02-16T05:46:00;18.67;;;3.67;;
53261;SDS011;39658;51.090;-1.786;2024-02-16T05:48:26;13.95;;;2.90;;
53261;SDS011;39658;51.090;-1.786;2024-02-16T05:50:57;22.65;;;4.20;;
53261;SDS011;39658;51.090;-1.786;2024-02-16T05:53:26;20.77;;;3.13;;
53261;SDS011;39658;51.090;-1.786;2024-02-16T05:55:53;11.85;;;2.47;;
53261;SDS011;39658;51.090;-1.786;2024-02-16T05:58:20;15.20;;;2.83;;
53261;SDS011;39658;51.090;-1.786;2024-02-16T06:00:48;10.45;;;3.72;;
53261;SDS011;39658;51.090;-1.786;2024-02-16T06:03:14;17.95;;;3.10;;
53261;SDS011;39658;51.090;-1.786;2024-02-16T06:05:41;18.25;;;3.40;;
53261;SDS011;39658;51.090;-1.786;2024-02-16T06:08:11;14.27;;;2.90;;
53261;SDS011;39658;51.090;-1.786;2024-02-16T06:10:38;16.40;;;3.10;;
53261;SDS011;39658;51.090;-1.786;2024-02-16T06:13:05;15.70;;;3.10;;
53261;SDS011;39658;51.090;-1.786;2024-02-16T06:15:33;27.30;;;3.28;;
53261;SDS011;39658;51.090;-1.786;2024-02-16T06:18:00;15.63;;;2.63;;
53261;SDS011;39658;51.090;-1.786;2024-02-16T06:20:27;12.45;;;3.50;;
53261;SDS011;39658;51.090;-1.786;2024-02-16T06:22:54;16.98;;;3.08;;
53261;SDS011;39658;51.090;-1.786;2024-02-16T06:25:23;11.65;;;2.50;;
53261;SDS011;39658;51.090;-1.786;2024-02-16T06:27:50;10.80;;;2.72;;
53261;SDS011;39658;51.090;-1.786;2024-02-16T06:30:17;14.43;;;3.38;;
53261;SDS011;39658;51.090;-1.786;2024-02-16T06:32:43;14.65;;;2.83;;
53261;SDS011;39658;51.090;-1.786;2024-02-16T06:35:10;14.32;;;2.60;;
53261;SDS011;39658;51.090;-1.786;2024-02-16T06:37:37;24.17;;;3.38;;
53261;SDS011;39658;51.090;-1.786;2024-02-16T06:40:04;13.70;;;2.33;;
53261;SDS011;39658;51.090;-1.786;2024-02-16T06:42:35;15.20;;;3.58;;
53261;SDS011;39658;51.090;-1.786;2024-02-16T06:45:03;13.98;;;3.13;;
53261;SDS011;39658;51.090;-1.786;2024-02-16T06:47:31;15.23;;;2.78;;
53261;SDS011;39658;51.090;-1.786;2024-02-16T06:49:57;15.70;;;3.08;;
53261;SDS011;39658;51.090;-1.786;2024-02-16T06:52:24;18.98;;;3.47;;
53261;SDS011;39658;51.090;-1.786;2024-02-16T06:54:51;11.70;;;2.40;;
53261;SDS011;39658;51.090;-1.786;2024-02-16T06:57:18;13.52;;;3.15;;
53261;SDS011;39658;51.090;-1.786;2024-02-16T06:59:47;15.63;;;2.47;;
53261;SDS011;39658;51.090;-1.786;2024-02-16T07:02:14;15.05;;;2.13;;
53261;SDS011;39658;51.090;-1.786;2024-02-16T07:04:43;18.30;;;2.85;;
53261;SDS011;39658;51.090;-1.786;2024-02-16T07:07:10;10.55;;;2.47;;
53261;SDS011;39658;51.090;-1.786;2024-02-16T07:09:37;12.77;;;2.35;;
53261;SDS011;39658;51.090;-1.786;2024-02-16T07:12:04;12.68;;;2.85;;
53261;SDS011;39658;51.090;-1.786;2024-02-16T07:14:32;20.60;;;2.17;;
53261;SDS011;39658;51.090;-1.786;2024-02-16T07:17:00;9.30;;;2.03;;
53261;SDS011;39658;51.090;-1.786;2024-02-16T07:19:27;19.52;;;3.22;;
53261;SDS011;39658;51.090;-1.786;2024-02-16T07:21:54;14.77;;;2.00;;
53261;SDS011;39658;51.090;-1.786;2024-02-16T07:24:20;18.73;;;2.95;;
53261;SDS011;39658;51.090;-1.786;2024-02-16T07:26:47;13.73;;;3.05;;
53261;SDS011;39658;51.090;-1.786;2024-02-16T07:29:14;14.77;;;2.65;;
53261;SDS011;39658;51.090;-1.786;2024-02-16T07:31:41;16.25;;;2.80;;
53261;SDS011;39658;51.090;-1.786;2024-02-16T07:34:10;17.52;;;2.40;;
53261;SDS011;39658;51.090;-1.786;2024-02-16T07:36:37;15.35;;;1.98;;
53261;SDS011;39658;51.090;-1.786;2024-02-16T07:39:04;10.27;;;2.63;;
53261;SDS011;39658;51.090;-1.786;2024-02-16T07:41:30;22.75;;;2.45;;
53261;SDS011;39658;51.090;-1.786;2024-02-16T07:43:57;13.43;;;2.30;;
53261;SDS011;39658;51.090;-1.786;2024-02-16T07:46:24;7.10;;;2.28;;
53261;SDS011;39658;51.090;-1.786;2024-02-16T07:48:51;14.93;;;2.55;;
53261;SDS011;39658;51.090;-1.786;2024-02-16T07:51:19;5.38;;;1.13;;
53261;SDS011;39658;51.090;-1.786;2024-02-16T07:53:45;16.27;;;2.35;;
53261;SDS011;39658;51.090;-1.786;2024-02-16T07:56:12;9.07;;;1.85;;
53261;SDS011;39658;51.090;-1.786;2024-02-16T07:58:40;11.30;;;1.70;;
53261;SDS011;39658;51.090;-1.786;2024-02-16T08:01:08;13.05;;;1.52;;
53261;SDS011;39658;51.090;-1.786;2024-02-16T08:03:36;10.20;;;1.60;;
53261;SDS011;39658;51.090;-1.786;2024-02-16T08:06:03;15.52;;;1.80;;
53261;SDS011;39658;51.090;-1.786;2024-02-16T08:08:31;11.40;;;1.58;;
53261;SDS011;39658;51.090;-1.786;2024-02-16T08:10:58;12.55;;;2.10;;
53261;SDS011;39658;51.090;-1.786;2024-02-16T08:13:24;13.98;;;2.05;;
53261;SDS011;39658;51.090;-1.786;2024-02-16T08:15:51;16.75;;;2.10;;
53261;SDS011;39658;51.090;-1.786;2024-02-16T08:18:18;16.00;;;2.35;;
53261;SDS011;39658;51.090;-1.786;2024-02-16T08:20:45;19.77;;;2.42;;
53261;SDS011;39658;51.090;-1.786;2024-02-16T08:23:12;14.05;;;3.05;;
53261;SDS011;39658;51.090;-1.786;2024-02-16T08:25:40;16.83;;;1.98;;
53261;SDS011;39658;51.090;-1.786;2024-02-16T08:28:06;14.07;;;2.67;;
53261;SDS011;39658;51.090;-1.786;2024-02-16T08:30:34;9.68;;;1.30;;
53261;SDS011;39658;51.090;-1.786;2024-02-16T08:33:01;10.65;;;1.55;;
53261;SDS011;39658;51.090;-1.786;2024-02-16T08:35:27;8.23;;;1.08;;
53261;SDS011;39658;51.090;-1.786;2024-02-16T08:37:54;8.27;;;0.82;;
53261;SDS011;39658;51.090;-1.786;2024-02-16T08:40:21;5.35;;;0.60;;
53261;SDS011;39658;51.090;-1.786;2024-02-16T08:42:50;9.60;;;1.00;;
53261;SDS011;39658;51.090;-1.786;2024-02-16T08:45:17;9.88;;;1.08;;
53261;SDS011;39658;51.090;-1.786;2024-02-16T08:47:43;8.30;;;1.17;;
53261;SDS011;39658;51.090;-1.786;2024-02-16T08:50:10;3.17;;;0.40;;
53261;SDS011;39658;51.090;-1.786;2024-02-16T08:52:37;6.15;;;1.75;;
53261;SDS011;39658;51.090;-1.786;2024-02-16T08:55:04;6.43;;;0.77;;
53261;SDS011;39658;51.090;-1.786;2024-02-16T08:57:31;7.90;;;0.77;;
53261;SDS011;39658;51.090;-1.786;2024-02-16T09:00:00;5.25;;;0.75;;
53261;SDS011;39658;51.090;-1.786;2024-02-16T09:02:28;4.75;;;0.88;;
53261;SDS011;39658;51.090;-1.786;2024-02-16T09:04:54;5.95;;;0.82;;
53261;SDS011;39658;51.090;-1.786;2024-02-16T09:07:21;3.10;;;0.60;;
53261;SDS011;39658;51.090;-1.786;2024-02-16T09:09:49;8.15;;;0.75;;
53261;SDS011;39658;51.090;-1.786;2024-02-16T09:12:16;2.20;;;0.65;;
53261;SDS011;39658;51.090;-1.786;2024-02-16T09:14:43;8.25;;;0.90;;
53261;SDS011;39658;51.090;-1.786;2024-02-16T09:17:11;5.70;;;1.30;;
53261;SDS011;39658;51.090;-1.786;2024-02-16T09:19:38;8.90;;;1.13;;
53261;SDS011;39658;51.090;-1.786;2024-02-16T09:22:05;9.77;;;1.50;;
53261;SDS011;39658;51.090;-1.786;2024-02-16T09:24:32;6.97;;;0.90;;
53261;SDS011;39658;51.090;-1.786;2024-02-16T09:26:59;6.70;;;1.00;;
53261;SDS011;39658;51.090;-1.786;2024-02-16T09:29:29;7.35;;;1.58;;
53261;SDS011;39658;51.090;-1.786;2024-02-16T09:31:56;6.20;;;0.80;;
53261;SDS011;39658;51.090;-1.786;2024-02-16T09:34:24;10.20;;;1.08;;
53261;SDS011;39658;51.090;-1.786;2024-02-16T09:36:51;3.60;;;0.47;;
53261;SDS011;39658;51.090;-1.786;2024-02-16T09:39:17;7.38;;;1.23;;
53261;SDS011;39658;51.090;-1.786;2024-02-16T09:41:44;10.80;;;1.80;;
53261;SDS011;39658;51.090;-1.786;2024-02-16T09:44:17;7.22;;;1.15;;
53261;SDS011;39658;51.090;-1.786;2024-02-16T09:46:46;11.70;;;1.13;;
53261;SDS011;39658;51.090;-1.786;2024-02-16T09:49:13;4.97;;;1.08;;
53261;SDS011;39658;51.090;-1.786;2024-02-16T09:51:41;6.97;;;1.10;;
53261;SDS011;39658;51.090;-1.786;2024-02-16T09:54:07;12.43;;;1.25;;
53261;SDS011;39658;51.090;-1.786;2024-02-16T09:56:36;6.85;;;0.90;;
53261;SDS011;39658;51.090;-1.786;2024-02-16T09:59:03;9.10;;;1.15;;
53261;SDS011;39658;51.090;-1.786;2024-02-16T10:01:30;4.45;;;0.73;;
53261;SDS011;39658;51.090;-1.786;2024-02-16T10:03:59;7.18;;;0.80;;
53261;SDS011;39658;51.090;-1.786;2024-02-16T10:06:31;10.50;;;1.17;;
53261;SDS011;39658;51.090;-1.786;2024-02-16T10:08:59;8.30;;;0.95;;
53261;SDS011;39658;51.090;-1.786;2024-02-16T10:11:31;8.85;;;1.70;;
53261;SDS011;39658;51.090;-1.786;2024-02-16T10:13:58;6.65;;;0.85;;
53261;SDS011;39658;51.090;-1.786;2024-02-16T10:16:26;6.30;;;1.05;;
53261;SDS011;39658;51.090;-1.786;2024-02-16T10:18:54;8.73;;;0.82;;
53261;SDS011;39658;51.090;-1.786;2024-02-16T10:21:25;7.90;;;1.10;;
53261;SDS011;39658;51.090;-1.786;2024-02-16T10:23:57;8.27;;;0.93;;
53261;SDS011;39658;51.090;-1.786;2024-02-16T10:26:27;7.85;;;1.38;;
53261;SDS011;39658;51.090;-1.786;2024-02-16T10:28:54;7.57;;;0.95;;
53261;SDS011;39658;51.090;-1.786;2024-02-16T10:31:23;14.30;;;1.88;;
53261;SDS011;39658;51.090;-1.786;2024-02-16T10:33:54;10.73;;;1.20;;
53261;SDS011;39658;51.090;-1.786;2024-02-16T10:38:50;7.35;;;1.52;;
53261;SDS011;39658;51.090;-1.786;2024-02-16T10:41:18;9.65;;;1.52;;
53261;SDS011;39658;51.090;-1.786;2024-02-16T10:43:48;10.70;;;1.27;;
53261;SDS011;39658;51.090;-1.786;2024-02-16T10:46:15;7.40;;;0.70;;
53261;SDS011;39658;51.090;-1.786;2024-02-16T10:48:42;8.10;;;1.20;;
53261;SDS011;39658;51.090;-1.786;2024-02-16T10:51:09;10.10;;;1.30;;
53261;SDS011;39658;51.090;-1.786;2024-02-16T10:53:37;6.30;;;1.10;;
53261;SDS011;39658;51.090;-1.786;2024-02-16T10:56:06;5.43;;;0.57;;
53261;SDS011;39658;51.090;-1.786;2024-02-16T10:58:33;8.40;;;1.30;;
53261;SDS011;39658;51.090;-1.786;2024-02-16T11:01:08;4.85;;;0.80;;
53261;SDS011;39658;51.090;-1.786;2024-02-16T11:03:37;6.07;;;0.65;;
53261;SDS011;39658;51.090;-1.786;2024-02-16T11:06:11;4.22;;;0.90;;
53261;SDS011;39658;51.090;-1.786;2024-02-16T11:08:41;8.05;;;0.98;;
53261;SDS011;39658;51.090;-1.786;2024-02-16T11:11:11;5.68;;;1.10;;
53261;SDS011;39658;51.090;-1.786;2024-02-16T11:13:38;4.75;;;0.80;;
53261;SDS011;39658;51.090;-1.786;2024-02-16T11:16:08;3.17;;;0.60;;
53261;SDS011;39658;51.090;-1.786;2024-02-16T11:18:38;5.35;;;0.80;;
53261;SDS011;39658;51.090;-1.786;2024-02-16T11:21:06;4.40;;;0.80;;
53261;SDS011;39658;51.090;-1.786;2024-02-16T11:23:34;3.47;;;0.73;;
53261;SDS011;39658;51.090;-1.786;2024-02-16T11:26:01;5.13;;;0.80;;
53261;SDS011;39658;51.090;-1.786;2024-02-16T11:28:31;6.25;;;1.38;;
53261;SDS011;39658;51.090;-1.786;2024-02-16T11:30:59;6.05;;;0.80;;
53261;SDS011;39658;51.090;-1.786;2024-02-16T11:33:27;5.43;;;1.05;;
53261;SDS011;39658;51.090;-1.786;2024-02-16T11:35:54;6.05;;;1.08;;
53261;SDS011;39658;51.090;-1.786;2024-02-16T11:38:22;4.82;;;1.15;;
53261;SDS011;39658;51.090;-1.786;2024-02-16T11:40:53;4.72;;;1.50;;
53261;SDS011;39658;51.090;-1.786;2024-02-16T11:43:23;6.00;;;0.90;;
53261;SDS011;39658;51.090;-1.786;2024-02-16T11:45:51;5.45;;;0.68;;
53261;SDS011;39658;51.090;-1.786;2024-02-16T11:48:21;4.07;;;1.10;;
53261;SDS011;39658;51.090;-1.786;2024-02-16T11:50:58;4.43;;;0.70;;
53261;SDS011;39658;51.090;-1.786;2024-02-16T11:53:27;4.47;;;0.63;;
53261;SDS011;39658;51.090;-1.786;2024-02-16T11:55:53;7.18;;;1.05;;
53261;SDS011;39658;51.090;-1.786;2024-02-16T11:58:20;4.25;;;0.73;;
53261;SDS011;39658;51.090;-1.786;2024-02-16T12:00:48;8.82;;;0.95;;
53261;SDS011;39658;51.090;-1.786;2024-02-16T12:03:20;10.40;;;0.90;;
53261;SDS011;39658;51.090;-1.786;2024-02-16T12:05:51;4.43;;;0.95;;
53261;SDS011;39658;51.090;-1.786;2024-02-16T12:08:19;7.75;;;0.90;;
53261;SDS011;39658;51.090;-1.786;2024-02-16T12:10:47;5.07;;;1.02;;
53261;SDS011;39658;51.090;-1.786;2024-02-16T12:13:15;8.63;;;1.35;;
53261;SDS011;39658;51.090;-1.786;2024-02-16T12:15:43;4.15;;;0.80;;
53261;SDS011;39658;51.090;-1.786;2024-02-16T12:18:10;4.63;;;1.23;;
53261;SDS011;39658;51.090;-1.786;2024-02-16T12:20:45;3.22;;;1.48;;
53261;SDS011;39658;51.090;-1.786;2024-02-16T12:23:15;3.55;;;0.40;;
53261;SDS011;39658;51.090;-1.786;2024-02-16T12:25:41;3.58;;;0.40;;
53261;SDS011;39658;51.090;-1.786;2024-02-16T12:28:08;5.68;;;1.05;;
53261;SDS011;39658;51.090;-1.786;2024-02-16T12:30:35;2.97;;;0.77;;
53261;SDS011;39658;51.090;-1.786;2024-02-16T12:33:02;1.65;;;0.40;;
53261;SDS011;39658;51.090;-1.786;2024-02-16T12:35:29;2.22;;;0.63;;
53261;SDS011;39658;51.090;-1.786;2024-02-16T12:37:56;3.00;;;0.65;;
53261;SDS011;39658;51.090;-1.786;2024-02-16T12:40:24;4.35;;;0.90;;
53261;SDS011;39658;51.090;-1.786;2024-02-16T12:42:51;5.20;;;1.02;;
53261;SDS011;39658;51.090;-1.786;2024-02-16T12:45:19;12.75;;;1.33;;
53261;SDS011;39658;51.090;-1.786;2024-02-16T12:47:45;4.85;;;0.80;;
53261;SDS011;39658;51.090;-1.786;2024-02-16T12:50:12;5.28;;;0.70;;
53261;SDS011;39658;51.090;-1.786;2024-02-16T12:52:39;7.78;;;1.00;;
53261;SDS011;39658;51.090;-1.786;2024-02-16T12:55:06;6.05;;;1.00;;
53261;SDS011;39658;51.090;-1.786;2024-02-16T12:57:36;6.32;;;0.90;;
53261;SDS011;39658;51.090;-1.786;2024-02-16T13:00:04;6.40;;;1.20;;
53261;SDS011;39658;51.090;-1.786;2024-02-16T13:02:31;8.27;;;1.05;;
53261;SDS011;39658;51.090;-1.786;2024-02-16T13:04:58;6.68;;;1.10;;
53261;SDS011;39658;51.090;-1.786;2024-02-16T13:07:25;5.68;;;0.82;;
53261;SDS011;39658;51.090;-1.786;2024-02-16T13:09:51;8.82;;;2.15;;
53261;SDS011;39658;51.090;-1.786;2024-02-16T13:12:18;6.05;;;0.57;;
53261;SDS011;39658;51.090;-1.786;2024-02-16T13:14:49;6.10;;;1.20;;
53261;SDS011;39658;51.090;-1.786;2024-02-16T13:17:16;5.63;;;1.05;;
53261;SDS011;39658;51.090;-1.786;2024-02-16T13:19:43;5.78;;;1.15;;
53261;SDS011;39658;51.090;-1.786;2024-02-16T13:22:10;4.68;;;1.27;;
53261;SDS011;39658;51.090;-1.786;2024-02-16T13:24:36;9.15;;;2.67;;
53261;SDS011;39658;51.090;-1.786;2024-02-16T13:27:03;7.38;;;1.27;;
53261;SDS011;39658;51.090;-1.786;2024-02-16T13:29:31;3.63;;;0.57;;
53261;SDS011;39658;51.090;-1.786;2024-02-16T13:32:00;6.47;;;0.90;;
53261;SDS011;39658;51.090;-1.786;2024-02-16T13:34:26;7.13;;;1.02;;
53261;SDS011;39658;51.090;-1.786;2024-02-16T13:36:53;5.40;;;0.73;;
53261;SDS011;39658;51.090;-1.786;2024-02-16T13:39:20;7.50;;;1.15;;
53261;SDS011;39658;51.090;-1.786;2024-02-16T13:41:47;7.22;;;1.35;;
53261;SDS011;39658;51.090;-1.786;2024-02-16T13:44:16;8.68;;;1.23;;
53261;SDS011;39658;51.090;-1.786;2024-02-16T13:46:43;7.10;;;0.98;;
53261;SDS011;39658;51.090;-1.786;2024-02-16T13:49:13;5.88;;;1.42;;
53261;SDS011;39658;51.090;-1.786;2024-02-16T13:51:40;6.80;;;1.75;;
53261;SDS011;39658;51.090;-1.786;2024-02-16T13:54:07;6.15;;;1.15;;
53261;SDS011;39658;51.090;-1.786;2024-02-16T13:56:34;5.30;;;0.73;;
53261;SDS011;39658;51.090;-1.786;2024-02-16T13:59:03;4.47;;;0.90;;
53261;SDS011;39658;51.090;-1.786;2024-02-16T14:01:32;6.65;;;1.10;;
53261;SDS011;39658;51.090;-1.786;2024-02-16T14:03:59;5.60;;;0.70;;
53261;SDS011;39658;51.090;-1.786;2024-02-16T14:06:29;10.23;;;1.02;;
53261;SDS011;39658;51.090;-1.786;2024-02-16T14:08:56;4.90;;;0.88;;
53261;SDS011;39658;51.090;-1.786;2024-02-16T14:11:23;6.47;;;1.08;;
53261;SDS011;39658;51.090;-1.786;2024-02-16T14:13:50;9.00;;;1.42;;
53261;SDS011;39658;51.090;-1.786;2024-02-16T14:16:17;5.50;;;1.05;;
53261;SDS011;39658;51.090;-1.786;2024-02-16T14:18:44;6.95;;;1.23;;
53261;SDS011;39658;51.090;-1.786;2024-02-16T14:21:13;9.50;;;0.90;;
53261;SDS011;39658;51.090;-1.786;2024-02-16T14:23:41;9.95;;;1.50;;
53261;SDS011;39658;51.090;-1.786;2024-02-16T14:26:08;11.13;;;1.50;;
53261;SDS011;39658;51.090;-1.786;2024-02-16T14:28:36;7.85;;;1.10;;
53261;SDS011;39658;51.090;-1.786;2024-02-16T14:31:03;4.90;;;0.68;;
53261;SDS011;39658;51.090;-1.786;2024-02-16T14:33:31;6.70;;;1.33;;